Time;durP1;ratioP1;P1;durP2;ratioP2;P2;SDS_P1;SDS_P2;PMS_P1;PMS_P2;Temp;Humidity;BMP_temperature;BMP_pressure;BME280_temperature;BME280_humidity;BME280_pressure;Samples;Min_cycle;Max_cycle;Signal;HPM_P1;HPM_P2
2023/12/08 00:00:20;;;;;;;27.25;16.35;;;2.40;99.90;;;;;;4988838;28;20516;-62
2023/12/08 00:02:47;;;;;;;25.70;15.73;;;2.40;99.90;;;;;;4989068;28;20042;-62
2023/12/08 00:05:13;;;;;;;26.27;16.58;;;2.40;99.90;;;;;;4985862;28;20049;-62
2023/12/08 00:07:40;;;;;;;26.05;16.95;;;2.30;99.90;;;;;;4989638;28;20263;-62
2023/12/08 00:10:06;;;;;;;29.70;16.85;;;2.30;99.90;;;;;;4981574;28;20046;-62
2023/12/08 00:12:32;;;;;;;25.90;16.73;;;2.30;99.90;;;;;;4969906;28;20133;-62
2023/12/08 00:14:58;;;;;;;28.95;18.17;;;2.30;99.90;;;;;;4976349;28;20044;-62
2023/12/08 00:17:24;;;;;;;28.98;17.02;;;2.30;99.90;;;;;;4988881;28;20041;-62
2023/12/08 00:19:51;;;;;;;23.92;15.65;;;2.30;99.90;;;;;;4984769;28;20042;-62
2023/12/08 00:22:17;;;;;;;28.33;16.75;;;2.30;99.90;;;;;;4989138;28;20468;-62
2023/12/08 00:24:43;;;;;;;23.85;16.08;;;2.30;99.90;;;;;;4989688;28;20112;-62
2023/12/08 00:27:09;;;;;;;25.13;16.17;;;2.30;99.90;;;;;;4988460;28;20465;-62
2023/12/08 00:29:35;;;;;;;28.13;17.08;;;2.30;99.90;;;;;;4989416;28;20057;-62
2023/12/08 00:32:01;;;;;;;25.67;17.30;;;2.30;99.90;;;;;;4988561;28;20050;-62
2023/12/08 00:34:27;;;;;;;25.35;15.65;;;2.30;99.90;;;;;;4986381;28;20592;-62
2023/12/08 00:36:53;;;;;;;22.20;16.00;;;2.20;99.90;;;;;;4989623;28;20105;-62
2023/12/08 00:39:19;;;;;;;27.85;17.52;;;2.30;99.90;;;;;;4987679;28;20753;-62
2023/12/08 00:41:44;;;;;;;24.20;15.88;;;2.20;99.90;;;;;;4986764;28;20040;-62
2023/12/08 00:44:11;;;;;;;27.00;15.95;;;2.30;99.90;;;;;;4989133;28;20042;-62
2023/12/08 00:46:36;;;;;;;25.45;16.27;;;2.20;99.90;;;;;;4989532;28;20065;-62
2023/12/08 00:49:02;;;;;;;24.15;16.08;;;2.20;99.90;;;;;;4989731;28;20598;-62
2023/12/08 00:51:28;;;;;;;26.95;17.13;;;2.30;99.90;;;;;;4986642;28;20409;-62
2023/12/08 00:53:53;;;;;;;26.45;16.02;;;2.20;99.90;;;;;;4986601;28;20041;-62
2023/12/08 00:56:19;;;;;;;27.08;16.67;;;2.20;99.90;;;;;;4989293;28;20287;-62
2023/12/08 00:58:45;;;;;;;28.45;16.27;;;2.20;99.90;;;;;;4987856;28;20509;-62
2023/12/08 01:01:11;;;;;;;24.63;16.67;;;2.20;99.90;;;;;;4986320;28;20042;-62
2023/12/08 01:03:36;;;;;;;23.38;15.80;;;2.20;99.90;;;;;;4984469;28;20049;-62
2023/12/08 01:06:02;;;;;;;25.70;16.30;;;2.20;99.90;;;;;;4988127;28;20034;-62
2023/12/08 01:08:29;;;;;;;23.67;16.20;;;2.20;99.90;;;;;;4990006;28;20046;-62
2023/12/08 01:10:54;;;;;;;24.20;16.60;;;2.20;99.90;;;;;;4988655;28;20563;-62
2023/12/08 01:13:20;;;;;;;23.40;16.77;;;2.20;99.90;;;;;;4987653;28;20416;-63
2023/12/08 01:15:47;;;;;;;26.77;16.40;;;2.10;99.90;;;;;;4987105;28;20046;-62
2023/12/08 01:18:13;;;;;;;29.42;18.35;;;2.10;99.90;;;;;;4975046;28;20057;-62
2023/12/08 01:20:39;;;;;;;26.55;17.25;;;2.10;99.90;;;;;;4981484;28;20038;-62
2023/12/08 01:23:04;;;;;;;29.48;17.73;;;2.10;99.90;;;;;;4986033;28;20046;-62
2023/12/08 01:25:30;;;;;;;24.65;16.27;;;2.10;99.90;;;;;;4988174;28;20128;-62
2023/12/08 01:27:56;;;;;;;24.23;16.30;;;2.10;99.90;;;;;;4984256;28;20403;-62
2023/12/08 01:30:22;;;;;;;26.35;17.00;;;2.10;99.90;;;;;;4970951;28;20038;-62
2023/12/08 01:32:48;;;;;;;27.77;17.60;;;2.10;99.90;;;;;;4996810;28;20580;-62
2023/12/08 01:35:14;;;;;;;26.67;16.80;;;2.10;99.90;;;;;;4995472;28;20041;-62
2023/12/08 01:37:39;;;;;;;25.13;17.00;;;2.10;99.90;;;;;;4994894;28;20279;-62
2023/12/08 01:40:06;;;;;;;27.05;18.00;;;2.10;99.90;;;;;;4993511;28;20096;-62
2023/12/08 01:42:32;;;;;;;23.70;15.65;;;2.10;99.90;;;;;;4995210;28;20041;-64
2023/12/08 01:44:58;;;;;;;28.80;17.88;;;2.10;99.90;;;;;;4983262;28;20044;-62
2023/12/08 01:47:24;;;;;;;26.08;17.45;;;2.10;99.90;;;;;;5005110;28;20045;-61
2023/12/08 01:49:51;;;;;;;25.63;17.23;;;2.10;99.90;;;;;;5000789;28;20424;-62
2023/12/08 01:52:26;;;;;;;25.75;17.15;;;2.10;99.90;;;;;;4993031;28;20045;-61
2023/12/08 01:54:58;;;;;;;24.75;17.33;;;2.10;99.90;;;;;;4998365;28;20104;-62
2023/12/08 01:57:24;;;;;;;26.98;17.65;;;2.10;99.90;;;;;;4992440;28;20034;-62
2023/12/08 01:59:51;;;;;;;27.33;17.38;;;2.10;99.90;;;;;;5000199;28;20037;-62
2023/12/08 02:02:18;;;;;;;26.45;16.27;;;2.10;99.90;;;;;;5001483;28;20038;-62
2023/12/08 02:04:47;;;;;;;24.98;16.33;;;2.10;99.90;;;;;;5002978;28;20050;-62
2023/12/08 02:07:14;;;;;;;;;;;2.20;99.90;;;;;;5004790;28;20559;-62
2023/12/08 02:09:40;;;;;;;27.58;18.20;;;2.10;99.90;;;;;;4999837;28;19928;-62
2023/12/08 02:12:06;;;;;;;26.15;17.20;;;2.10;99.90;;;;;;4999296;28;20539;-63
2023/12/08 02:14:32;;;;;;;27.08;17.42;;;2.20;99.90;;;;;;4998710;28;20034;-62
2023/12/08 02:17:10;;;;;;;26.23;17.00;;;2.10;99.90;;;;;;5000216;28;20497;-63
2023/12/08 02:19:37;;;;;;;27.50;17.38;;;2.10;99.90;;;;;;4997652;28;20042;-63
2023/12/08 02:22:04;;;;;;;24.88;17.08;;;2.10;99.90;;;;;;5002899;28;20533;-63
2023/12/08 02:24:30;;;;;;;27.20;17.52;;;2.10;99.90;;;;;;5001743;28;20100;-62
2023/12/08 02:26:56;;;;;;;28.85;18.27;;;2.10;99.90;;;;;;5002796;28;20041;-62
2023/12/08 02:29:22;;;;;;;26.80;17.58;;;2.10;99.90;;;;;;4997481;28;21284;-63
2023/12/08 02:31:58;;;;;;;30.27;18.70;;;2.10;99.90;;;;;;4983502;28;20101;-63
2023/12/08 02:34:26;;;;;;;27.45;18.20;;;2.10;99.90;;;;;;4997528;28;20582;-63
2023/12/08 02:36:54;;;;;;;26.03;16.70;;;2.10;99.90;;;;;;4993505;28;20037;-64
2023/12/08 02:39:21;;;;;;;29.45;17.15;;;2.10;99.90;;;;;;4998792;28;20599;-63
2023/12/08 02:41:46;;;;;;;27.27;16.92;;;2.20;99.90;;;;;;4997204;28;20163;-63
2023/12/08 02:44:12;;;;;;;26.45;17.75;;;2.10;99.90;;;;;;5003867;28;20614;-63
2023/12/08 02:46:39;;;;;;;26.73;17.40;;;2.10;99.90;;;;;;5005074;28;20614;-63
2023/12/08 02:49:05;;;;;;;24.23;16.63;;;2.10;99.90;;;;;;5000292;28;20133;-63
2023/12/08 02:51:30;;;;;;;25.95;17.52;;;2.10;99.90;;;;;;4998690;28;20120;-63
2023/12/08 02:53:56;;;;;;;26.63;17.70;;;2.10;99.90;;;;;;5001564;28;20046;-63
2023/12/08 02:56:22;;;;;;;27.48;17.58;;;2.10;99.90;;;;;;4996782;28;20041;-63
2023/12/08 02:58:48;;;;;;;27.10;17.85;;;2.10;99.90;;;;;;4975620;28;20054;-63
2023/12/08 03:01:14;;;;;;;29.63;18.00;;;2.10;99.90;;;;;;5001998;28;20507;-63
2023/12/08 03:03:40;;;;;;;27.30;17.40;;;2.10;99.90;;;;;;4997607;28;20729;-63
2023/12/08 03:06:06;;;;;;;28.77;17.38;;;2.10;99.90;;;;;;4997242;28;20144;-63
2023/12/08 03:08:32;;;;;;;27.38;18.02;;;2.10;99.90;;;;;;4999355;28;20042;-63
2023/12/08 03:10:58;;;;;;;27.30;17.48;;;2.10;99.90;;;;;;4991622;28;20042;-63
2023/12/08 03:13:23;;;;;;;26.55;17.83;;;2.10;99.90;;;;;;4989148;28;20045;-63
2023/12/08 03:15:49;;;;;;;27.73;17.55;;;2.10;99.90;;;;;;4990684;28;20053;-62
2023/12/08 03:18:15;;;;;;;28.15;17.17;;;2.10;99.90;;;;;;4991205;28;20159;-63
2023/12/08 03:20:41;;;;;;;27.40;18.02;;;2.10;99.90;;;;;;4984038;28;20042;-63
2023/12/08 03:23:06;;;;;;;24.88;17.00;;;2.10;99.90;;;;;;4978348;28;20037;-63
2023/12/08 03:25:32;;;;;;;25.50;17.63;;;2.00;99.90;;;;;;4979221;28;20048;-62
2023/12/08 03:27:58;;;;;;;29.48;17.05;;;2.10;99.90;;;;;;4980368;28;20436;-63
2023/12/08 03:30:24;;;;;;;26.80;17.70;;;2.00;99.90;;;;;;4983301;28;20092;-63
2023/12/08 03:32:50;;;;;;;29.08;18.73;;;2.00;99.90;;;;;;4989518;28;20046;-63
2023/12/08 03:35:15;;;;;;;25.92;16.75;;;2.10;99.90;;;;;;4987391;28;20046;-62
2023/12/08 03:37:41;;;;;;;25.80;17.05;;;2.10;99.90;;;;;;4990281;28;20064;-63
2023/12/08 03:40:08;;;;;;;23.27;16.75;;;2.10;99.90;;;;;;4988271;28;20045;-63
2023/12/08 03:42:36;;;;;;;25.63;16.35;;;2.10;99.90;;;;;;4990574;28;20037;-63
2023/12/08 03:45:03;;;;;;;25.73;16.65;;;2.00;99.90;;;;;;4983943;28;20046;-63
2023/12/08 03:47:29;;;;;;;29.45;17.23;;;2.10;99.90;;;;;;4987617;28;20477;-63
2023/12/08 03:49:55;;;;;;;27.75;16.60;;;2.10;99.90;;;;;;4987285;28;20037;-63
2023/12/08 03:52:21;;;;;;;24.42;17.25;;;2.10;99.90;;;;;;4989654;28;20030;-63
2023/12/08 03:54:46;;;;;;;25.67;16.45;;;2.10;99.90;;;;;;4990306;28;20062;-62
2023/12/08 03:57:12;;;;;;;24.63;17.33;;;2.00;99.90;;;;;;4988424;28;20504;-64
2023/12/08 03:59:38;;;;;;;28.08;16.00;;;2.10;99.90;;;;;;4976450;28;20080;-63
2023/12/08 04:02:04;;;;;;;23.88;16.42;;;2.10;99.90;;;;;;4974536;28;20061;-63
2023/12/08 04:04:29;;;;;;;26.55;16.92;;;2.10;99.90;;;;;;4969042;28;20044;-62
2023/12/08 04:06:56;;;;;;;27.75;16.58;;;2.10;99.90;;;;;;4985980;28;20373;-63
2023/12/08 04:09:22;;;;;;;24.95;17.38;;;2.10;99.90;;;;;;4986310;28;20136;-63
2023/12/08 04:11:48;;;;;;;26.92;17.48;;;2.00;99.90;;;;;;4988909;28;20403;-62
2023/12/08 04:14:13;;;;;;;28.98;16.35;;;2.20;99.90;;;;;;4985709;28;21485;-63
2023/12/08 04:16:39;;;;;;;25.42;16.83;;;2.00;99.90;;;;;;4986761;28;20402;-62
2023/12/08 04:19:05;;;;;;;24.60;16.25;;;2.00;99.90;;;;;;4988207;28;20038;-63
2023/12/08 04:21:31;;;;;;;27.80;17.30;;;2.00;99.90;;;;;;4986124;28;20026;-62
2023/12/08 04:23:57;;;;;;;24.70;16.52;;;2.00;99.90;;;;;;4987955;28;20065;-63
2023/12/08 04:26:26;;;;;;;26.20;16.90;;;1.90;99.90;;;;;;4988368;28;20363;-63
2023/12/08 04:28:52;;;;;;;23.95;16.00;;;2.00;99.90;;;;;;4989901;28;20052;-63
2023/12/08 04:31:18;;;;;;;24.40;15.98;;;1.90;99.90;;;;;;4984899;28;20492;-63
2023/12/08 04:33:44;;;;;;;28.25;17.30;;;1.90;99.90;;;;;;4989822;28;20053;-63
2023/12/08 04:36:10;;;;;;;25.00;17.02;;;1.90;99.90;;;;;;4989333;28;20828;-63
2023/12/08 04:38:36;;;;;;;26.23;16.60;;;1.90;99.90;;;;;;4976610;28;20144;-63
2023/12/08 04:41:02;;;;;;;28.48;16.90;;;1.90;99.90;;;;;;4988039;28;20037;-63
2023/12/08 04:43:27;;;;;;;25.67;17.33;;;1.80;99.90;;;;;;4986747;28;20108;-63
2023/12/08 04:45:53;;;;;;;26.63;16.52;;;1.80;99.90;;;;;;4990440;28;20037;-63
2023/12/08 04:48:19;;;;;;;27.90;17.15;;;1.80;99.90;;;;;;4985994;28;20610;-64
2023/12/08 04:50:45;;;;;;;25.90;16.75;;;1.70;99.90;;;;;;4987926;28;20049;-63
2023/12/08 04:53:11;;;;;;;27.38;17.55;;;1.70;99.90;;;;;;4989040;28;20044;-63
2023/12/08 04:55:37;;;;;;;29.05;17.65;;;1.70;99.90;;;;;;4979964;28;20335;-63
2023/12/08 04:58:03;;;;;;;27.00;16.70;;;1.70;99.90;;;;;;4982794;28;20227;-63
2023/12/08 05:00:29;;;;;;;27.90;16.67;;;1.70;99.90;;;;;;4986569;28;20408;-63
2023/12/08 05:02:58;;;;;;;28.23;17.92;;;1.60;99.90;;;;;;4987178;28;20353;-63
2023/12/08 05:05:26;;;;;;;29.98;17.67;;;1.70;99.90;;;;;;4988711;28;20359;-63
2023/12/08 05:07:53;;;;;;;31.38;18.85;;;1.40;99.90;;;;;;4984934;28;20042;-63
2023/12/08 05:10:18;;;;;;;27.83;17.70;;;1.60;99.90;;;;;;4985472;28;20069;-63
2023/12/08 05:12:44;;;;;;;30.48;18.10;;;1.70;99.90;;;;;;4985347;28;20129;-63
2023/12/08 05:15:10;;;;;;;33.38;19.63;;;1.60;99.90;;;;;;4986193;28;20045;-63
2023/12/08 05:17:36;;;;;;;32.00;17.85;;;1.60;99.90;;;;;;4988561;28;20042;-63
2023/12/08 05:20:03;;;;;;;31.73;17.58;;;1.50;99.90;;;;;;4988500;28;20042;-63
2023/12/08 05:22:29;;;;;;;30.63;18.13;;;1.60;99.90;;;;;;4984639;28;20413;-63
2023/12/08 05:24:55;;;;;;;33.25;17.58;;;1.60;99.90;;;;;;4969622;28;20068;-63
2023/12/08 05:27:21;;;;;;;31.60;20.52;;;1.60;99.90;;;;;;4987580;28;20082;-62
2023/12/08 05:29:46;;;;;;;29.98;18.10;;;1.60;99.90;;;;;;4988919;28;20041;-62
2023/12/08 05:32:12;;;;;;;29.98;18.20;;;1.60;99.90;;;;;;4988803;28;20217;-63
2023/12/08 05:34:39;;;;;;;32.22;19.23;;;1.50;99.90;;;;;;4993290;28;20038;-62
2023/12/08 05:37:04;;;;;;;32.40;19.55;;;1.50;99.90;;;;;;4986459;28;20116;-64
2023/12/08 05:39:31;;;;;;;30.80;18.15;;;1.50;99.90;;;;;;4991049;28;20045;-64
2023/12/08 05:41:56;;;;;;;29.48;17.83;;;1.50;99.90;;;;;;4991219;28;20034;-63
2023/12/08 05:44:22;;;;;;;32.55;18.55;;;1.50;99.90;;;;;;4992449;28;20601;-63
2023/12/08 05:46:48;;;;;;;35.28;20.20;;;1.50;99.90;;;;;;4991027;28;20034;-63
2023/12/08 05:49:14;;;;;;;35.03;19.33;;;1.50;99.90;;;;;;4990846;28;20662;-63
2023/12/08 05:51:39;;;;;;;30.65;18.73;;;1.50;99.90;;;;;;4980320;28;20048;-63
2023/12/08 05:54:05;;;;;;;38.38;19.52;;;1.50;99.90;;;;;;4984730;28;20204;-62
2023/12/08 05:56:31;;;;;;;36.17;19.80;;;1.40;99.90;;;;;;4990702;28;20928;-63
2023/12/08 05:58:57;;;;;;;30.75;19.13;;;1.50;99.90;;;;;;4990414;28;20042;-63
2023/12/08 06:01:22;;;;;;;32.80;19.65;;;1.50;99.90;;;;;;4981786;28;20405;-63
2023/12/08 06:03:48;;;;;;;30.02;19.25;;;1.50;99.90;;;;;;4986983;28;20089;-63
2023/12/08 06:06:15;;;;;;;32.42;19.20;;;1.60;99.90;;;;;;4989538;28;20038;-63
2023/12/08 06:08:41;;;;;;;32.50;19.73;;;1.50;99.90;;;;;;4988949;28;20077;-64
2023/12/08 06:11:06;;;;;;;30.52;19.92;;;1.50;99.90;;;;;;4984646;28;20211;-63
2023/12/08 06:13:32;;;;;;;31.67;18.88;;;1.50;99.90;;;;;;4978483;28;20458;-63
2023/12/08 06:15:58;;;;;;;31.40;18.95;;;1.50;99.90;;;;;;4965063;28;20057;-64
2023/12/08 06:18:25;;;;;;;32.90;19.55;;;1.50;99.90;;;;;;4980546;28;20042;-64
2023/12/08 06:20:51;;;;;;;33.47;20.55;;;1.40;99.90;;;;;;4975054;28;20057;-65
2023/12/08 06:23:17;;;;;;;32.33;20.00;;;1.50;99.90;;;;;;4975242;28;20037;-64
2023/12/08 06:25:43;;;;;;;32.38;18.67;;;1.40;99.90;;;;;;4982381;28;20046;-65
2023/12/08 06:28:08;;;;;;;30.65;19.40;;;1.50;99.90;;;;;;4976216;28;20064;-64
2023/12/08 06:30:34;;;;;;;30.27;18.60;;;1.50;99.90;;;;;;4983263;28;20066;-63
2023/12/08 06:33:00;;;;;;;31.42;18.77;;;1.40;99.90;;;;;;4987142;28;20042;-63
2023/12/08 06:35:26;;;;;;;30.23;17.85;;;1.50;99.90;;;;;;4985544;28;20047;-64
2023/12/08 06:37:51;;;;;;;35.08;19.77;;;1.40;99.90;;;;;;4985396;28;20065;-64
2023/12/08 06:40:17;;;;;;;36.25;19.92;;;1.40;99.90;;;;;;4985850;28;20452;-64
2023/12/08 06:42:43;;;;;;;32.15;19.17;;;1.40;99.90;;;;;;4984098;28;20487;-63
2023/12/08 06:45:09;;;;;;;35.08;20.00;;;1.50;99.90;;;;;;4982708;28;20216;-65
2023/12/08 06:47:35;;;;;;;34.10;20.58;;;1.40;99.90;;;;;;4985039;28;20288;-65
2023/12/08 06:50:01;;;;;;;36.13;20.25;;;1.40;99.90;;;;;;4992160;28;20839;-64
2023/12/08 06:52:26;;;;;;;35.20;20.17;;;1.40;99.90;;;;;;4992552;28;20037;-64
2023/12/08 06:54:52;;;;;;;35.03;19.63;;;1.50;99.90;;;;;;4980927;28;20037;-64
2023/12/08 06:57:18;;;;;;;36.63;20.95;;;1.40;99.90;;;;;;4993410;28;20437;-63
2023/12/08 06:59:44;;;;;;;35.47;20.02;;;1.50;99.90;;;;;;4996806;28;20260;-64
2023/12/08 07:02:09;;;;;;;35.67;19.02;;;1.40;99.90;;;;;;4990328;28;20369;-64
2023/12/08 07:04:35;;;;;;;32.90;19.73;;;1.50;99.90;;;;;;4989090;28;20119;-64
2023/12/08 07:07:01;;;;;;;32.50;20.05;;;1.50;99.90;;;;;;4990170;28;20042;-63
2023/12/08 07:09:27;;;;;;;30.05;18.58;;;1.50;99.90;;;;;;4994984;28;20338;-64
2023/12/08 07:11:53;;;;;;;33.60;20.23;;;1.40;99.90;;;;;;4993808;28;20116;-64
2023/12/08 07:14:19;;;;;;;32.63;19.15;;;1.40;99.90;;;;;;4987336;28;20076;-63
2023/12/08 07:16:45;;;;;;;33.83;20.35;;;1.50;99.90;;;;;;4970373;28;20655;-64
2023/12/08 07:19:11;;;;;;;31.58;18.83;;;1.50;99.90;;;;;;4989409;28;20045;-63
2023/12/08 07:21:46;;;;;;;31.40;19.08;;;1.40;99.90;;;;;;4988897;28;20045;-64
2023/12/08 07:24:12;;;;;;;37.75;19.27;;;1.40;99.90;;;;;;4999296;28;20500;-64
2023/12/08 07:26:38;;;;;;;34.00;19.13;;;1.50;99.90;;;;;;4990074;28;20057;-63
2023/12/08 07:29:03;;;;;;;33.50;19.58;;;1.40;99.90;;;;;;4986783;28;20512;-63
2023/12/08 07:31:29;;;;;;;34.75;20.45;;;1.50;99.90;;;;;;4998895;28;20045;-63
2023/12/08 07:33:56;;;;;;;33.08;19.23;;;1.50;99.90;;;;;;4998364;28;20449;-63
2023/12/08 07:36:21;;;;;;;33.80;20.13;;;1.50;99.90;;;;;;4976413;28;20103;-63
2023/12/08 07:38:47;;;;;;;33.03;19.45;;;1.50;99.90;;;;;;4985880;28;20646;-64
2023/12/08 07:41:13;;;;;;;35.10;20.27;;;1.50;99.90;;;;;;4999470;28;20142;-64
2023/12/08 07:43:39;;;;;;;34.00;20.17;;;1.40;99.90;;;;;;4992650;28;20038;-64
2023/12/08 07:46:08;;;;;;;34.75;19.75;;;1.50;99.90;;;;;;4992017;28;20092;-64
2023/12/08 07:48:34;;;;;;;38.80;21.60;;;1.60;99.90;;;;;;4975776;28;20529;-65
2023/12/08 07:51:00;;;;;;;38.92;20.48;;;1.60;99.90;;;;;;4985536;28;20392;-64
2023/12/08 07:53:25;;;;;;;33.58;20.13;;;1.60;99.90;;;;;;4981845;28;20128;-63
2023/12/08 07:55:51;;;;;;;34.78;19.65;;;1.60;99.90;;;;;;4980871;28;20037;-64
2023/12/08 07:58:17;;;;;;;37.42;21.60;;;1.50;99.90;;;;;;4977769;28;20544;-65
2023/12/08 08:00:43;;;;;;;33.10;20.15;;;1.50;99.90;;;;;;4964597;28;20042;-65
2023/12/08 08:03:09;;;;;;;40.97;21.00;;;1.60;99.90;;;;;;4988266;28;20389;-63
2023/12/08 08:05:34;;;;;;;35.22;19.98;;;1.50;99.90;;;;;;4992143;28;20128;-64
2023/12/08 08:08:02;;;;;;;39.15;21.30;;;1.50;99.90;;;;;;4985620;28;20081;-64
2023/12/08 08:10:28;;;;;;;35.80;21.17;;;1.60;99.90;;;;;;4979816;28;20712;-64
2023/12/08 08:12:54;;;;;;;34.30;20.10;;;1.60;99.90;;;;;;4979226;28;20038;-63
2023/12/08 08:15:20;;;;;;;40.03;21.35;;;1.70;99.90;;;;;;4985338;28;20459;-64
2023/12/08 08:17:45;;;;;;;35.75;21.17;;;1.60;99.90;;;;;;4990031;28;20041;-64
2023/12/08 08:20:11;;;;;;;37.47;21.05;;;1.60;99.90;;;;;;4990007;28;20077;-64
2023/12/08 08:22:37;;;;;;;37.72;21.38;;;1.70;99.90;;;;;;4994673;28;20061;-64
2023/12/08 08:25:03;;;;;;;37.40;22.55;;;1.60;99.90;;;;;;4993652;28;20033;-63
2023/12/08 08:27:29;;;;;;;41.85;22.77;;;1.70;99.90;;;;;;4997039;28;20093;-64
2023/12/08 08:29:54;;;;;;;41.88;21.35;;;1.70;99.90;;;;;;4987897;28;20550;-63
2023/12/08 08:32:21;;;;;;;36.75;20.42;;;1.70;99.90;;;;;;4980751;28;20099;-64
2023/12/08 08:34:46;;;;;;;40.00;23.00;;;1.70;99.90;;;;;;4982988;28;20072;-63
2023/12/08 08:37:12;;;;;;;40.05;22.15;;;1.70;99.90;;;;;;4981303;28;20050;-63
2023/12/08 08:39:38;;;;;;;39.45;21.88;;;1.60;99.90;;;;;;4982525;28;20052;-63
2023/12/08 08:42:04;;;;;;;37.78;20.95;;;1.80;99.90;;;;;;4978385;28;20038;-63
2023/12/08 08:44:30;;;;;;;38.47;21.25;;;1.70;99.90;;;;;;4981668;28;20091;-63
2023/12/08 08:46:56;;;;;;;37.22;21.27;;;1.70;99.90;;;;;;4982386;28;20034;-64
2023/12/08 08:49:22;;;;;;;35.25;21.25;;;1.70;99.90;;;;;;4982270;28;20084;-64
2023/12/08 08:51:48;;;;;;;37.15;21.35;;;1.80;99.90;;;;;;4980140;28;20127;-64
2023/12/08 08:54:14;;;;;;;37.75;21.70;;;1.80;99.90;;;;;;4996672;28;20042;-62
2023/12/08 08:56:40;;;;;;;40.60;21.60;;;1.70;99.90;;;;;;4997542;28;20137;-63
2023/12/08 08:59:06;;;;;;;40.58;21.63;;;1.80;99.90;;;;;;4995017;28;20042;-62
2023/12/08 09:01:31;;;;;;;37.33;21.92;;;1.80;99.90;;;;;;4996718;28;20796;-63
2023/12/08 09:03:57;;;;;;;38.83;21.60;;;1.70;99.90;;;;;;4993980;28;20045;-63
2023/12/08 09:06:24;;;;;;;36.97;21.10;;;1.80;99.90;;;;;;5002372;28;20041;-63
2023/12/08 09:08:50;;;;;;;38.78;21.15;;;1.80;99.90;;;;;;5003011;28;20049;-63
2023/12/08 09:11:16;;;;;;;39.05;21.67;;;1.80;99.90;;;;;;4996661;28;20124;-63
2023/12/08 09:13:42;;;;;;;36.95;22.38;;;1.80;99.90;;;;;;4999619;28;20030;-63
2023/12/08 09:16:08;;;;;;;41.00;22.85;;;1.80;99.90;;;;;;5001417;28;20054;-62
2023/12/08 09:18:34;;;;;;;44.10;22.92;;;1.90;99.90;;;;;;5001383;28;20619;-63
2023/12/08 09:21:00;;;;;;;38.13;22.35;;;1.80;99.90;;;;;;5001198;28;20128;-64
2023/12/08 09:23:25;;;;;;;37.90;21.67;;;1.80;99.90;;;;;;4997307;28;20050;-64
2023/12/08 09:25:53;;;;;;;40.22;21.63;;;1.80;99.90;;;;;;5000018;28;20041;-62
2023/12/08 09:28:20;;;;;;;33.17;19.92;;;2.00;99.90;;;;;;4997330;28;20038;-63
2023/12/08 09:30:46;;;;;;;34.25;20.73;;;2.10;99.90;;;;;;5004586;28;20046;-64
2023/12/08 09:33:12;;;;;;;34.53;21.38;;;2.00;99.90;;;;;;5001257;28;20456;-63
2023/12/08 09:35:38;;;;;;;36.22;20.67;;;1.90;99.90;;;;;;5000741;28;20038;-63
2023/12/08 09:38:04;;;;;;;35.40;21.08;;;2.00;99.90;;;;;;5000733;28;20042;-64
2023/12/08 09:40:32;;;;;;;36.38;22.02;;;1.90;99.90;;;;;;5000397;28;20034;-64
2023/12/08 09:43:06;;;;;;;33.47;20.88;;;1.90;99.90;;;;;;4987227;28;20462;-63
2023/12/08 09:45:32;;;;;;;35.22;20.85;;;2.00;99.90;;;;;;4987858;28;20523;-64
2023/12/08 09:48:00;;;;;;;30.60;19.92;;;2.00;99.90;;;;;;4996142;28;20037;-63
2023/12/08 09:50:26;;;;;;;36.13;21.45;;;2.10;99.90;;;;;;4990684;28;20049;-63
2023/12/08 09:52:54;;;;;;;35.30;21.33;;;2.00;99.90;;;;;;5000899;28;20053;-64
2023/12/08 09:55:20;;;;;;;32.80;20.80;;;2.10;99.90;;;;;;4985747;28;20089;-62
2023/12/08 09:57:48;;;;;;;33.55;20.38;;;2.10;99.90;;;;;;4998538;28;20030;-63
2023/12/08 10:00:15;;;;;;;34.08;21.02;;;2.10;99.90;;;;;;4998696;28;20030;-64
2023/12/08 10:02:41;;;;;;;34.35;20.23;;;2.10;99.90;;;;;;4981863;28;20045;-63
2023/12/08 10:05:11;;;;;;;35.17;19.67;;;2.20;99.90;;;;;;5000639;28;20508;-63
2023/12/08 10:07:46;;;;;;;32.67;20.48;;;2.10;99.90;;;;;;4999500;28;20120;-64
2023/12/08 10:10:11;;;;;;;36.63;20.85;;;2.10;99.90;;;;;;4998545;28;20120;-62
2023/12/08 10:12:39;;;;;;;36.40;22.10;;;2.10;99.90;;;;;;4999736;28;20038;-62
2023/12/08 10:15:09;;;;;;;33.25;20.38;;;2.20;99.90;;;;;;4997669;28;20042;-63
2023/12/08 10:17:49;;;;;;;33.72;20.83;;;2.20;99.90;;;;;;4998415;28;20496;-63
2023/12/08 10:20:15;;;;;;;34.97;21.08;;;2.20;99.90;;;;;;4999908;28;20124;-62
2023/12/08 10:22:46;;;;;;;33.55;20.35;;;2.20;99.90;;;;;;4993412;28;20042;-63
2023/12/08 10:25:16;;;;;;;36.90;22.17;;;2.20;99.90;;;;;;4999005;28;20100;-63
2023/12/08 10:27:45;;;;;;;35.22;21.40;;;2.20;99.90;;;;;;4990951;28;20251;-63
2023/12/08 10:30:11;;;;;;;35.15;21.23;;;2.20;99.90;;;;;;4998401;28;20564;-62
2023/12/08 10:32:38;;;;;;;34.53;19.25;;;2.10;99.90;;;;;;4998514;28;20044;-62
2023/12/08 10:35:05;;;;;;;29.17;19.27;;;2.20;99.90;;;;;;4996268;28;20073;-62
2023/12/08 10:37:31;;;;;;;31.55;20.35;;;2.20;99.90;;;;;;4989939;28;20062;-62
2023/12/08 10:39:56;;;;;;;37.40;21.17;;;2.40;99.90;;;;;;5000147;28;20041;-63
2023/12/08 10:42:23;;;;;;;32.60;20.42;;;2.30;99.90;;;;;;4998575;28;20057;-63
2023/12/08 10:44:49;;;;;;;36.88;22.05;;;2.30;99.90;;;;;;5001422;28;20559;-62
2023/12/08 10:47:17;;;;;;;36.85;20.88;;;2.30;99.90;;;;;;4998572;28;20096;-62
2023/12/08 10:49:44;;;;;;;36.60;21.67;;;2.30;99.90;;;;;;4998845;28;20297;-63
2023/12/08 10:52:10;;;;;;;38.28;22.00;;;2.30;99.90;;;;;;4996480;28;20055;-62
2023/12/08 10:54:36;;;;;;;37.17;21.40;;;2.40;99.90;;;;;;4997857;28;20041;-63
2023/12/08 10:57:02;;;;;;;36.00;21.10;;;2.40;99.90;;;;;;4992498;28;20056;-63
2023/12/08 10:59:31;;;;;;;36.17;19.67;;;2.40;99.90;;;;;;4996083;28;20538;-63
2023/12/08 11:02:01;;;;;;;32.28;20.75;;;2.40;99.90;;;;;;4999918;28;20030;-62
2023/12/08 11:04:32;;;;;;;36.80;21.00;;;2.40;99.90;;;;;;4998454;28;20042;-64
2023/12/08 11:07:07;;;;;;;34.70;20.10;;;2.30;99.90;;;;;;4998908;28;20461;-64
2023/12/08 11:09:37;;;;;;;43.33;22.00;;;2.40;99.90;;;;;;4998821;28;20635;-63
2023/12/08 11:12:06;;;;;;;41.50;20.95;;;2.40;99.90;;;;;;4992497;28;20042;-63
2023/12/08 11:14:41;;;;;;;40.92;22.70;;;2.30;99.90;;;;;;4981995;28;20137;-63
2023/12/08 11:17:13;;;;;;;39.63;22.17;;;2.30;99.90;;;;;;4993860;28;20044;-63
2023/12/08 11:19:40;;;;;;;40.63;22.38;;;2.30;99.90;;;;;;4999399;28;20038;-63
2023/12/08 11:22:06;;;;;;;40.75;23.27;;;2.30;99.90;;;;;;4996192;28;20042;-63
2023/12/08 11:24:33;;;;;;;39.42;22.48;;;2.30;99.90;;;;;;4999573;28;20046;-63
2023/12/08 11:27:12;;;;;;;42.05;22.15;;;2.50;99.90;;;;;;4994555;28;20374;-63
2023/12/08 11:29:53;;;;;;;37.95;22.10;;;2.40;99.90;;;;;;4995521;28;20046;-64
2023/12/08 11:32:35;;;;;;;41.42;23.02;;;2.30;99.90;;;;;;4982847;28;20077;-63
2023/12/08 11:35:04;;;;;;;39.20;22.95;;;2.40;99.90;;;;;;4981122;28;20164;-62
2023/12/08 11:37:33;;;;;;;42.70;22.23;;;2.40;99.90;;;;;;4963788;28;20052;-62
2023/12/08 11:40:11;;;;;;;39.13;21.75;;;2.40;99.90;;;;;;4996773;28;20275;-63
2023/12/08 11:42:38;;;;;;;43.47;23.27;;;2.30;99.90;;;;;;4993730;28;20575;-63
2023/12/08 11:45:08;;;;;;;48.45;22.42;;;2.30;99.90;;;;;;4994069;28;20433;-63
2023/12/08 11:47:35;;;;;;;38.05;21.75;;;2.40;99.90;;;;;;4994651;28;20038;-63
2023/12/08 11:50:05;;;;;;;40.15;23.30;;;2.30;99.90;;;;;;4984856;28;20056;-64
2023/12/08 11:52:36;;;;;;;51.65;24.80;;;2.70;99.90;;;;;;4985079;28;20041;-64
2023/12/08 11:55:07;;;;;;;38.33;22.90;;;2.50;99.90;;;;;;4985146;28;20921;-63
2023/12/08 11:57:46;;;;;;;41.30;23.17;;;2.50;99.90;;;;;;4980291;28;20042;-64
2023/12/08 12:00:20;;;;;;;51.07;25.97;;;2.50;99.90;;;;;;4996211;28;20054;-63
2023/12/08 12:02:47;;;;;;;49.17;23.40;;;2.40;99.90;;;;;;4995552;28;20291;-64
2023/12/08 12:05:14;;;;;;;44.00;23.33;;;2.60;99.90;;;;;;4986518;28;20795;-63
2023/12/08 12:07:40;;;;;;;46.97;24.10;;;2.50;99.90;;;;;;4998169;28;20038;-64
2023/12/08 12:10:10;;;;;;;43.35;25.13;;;2.50;99.90;;;;;;4991188;28;20084;-63
2023/12/08 12:12:42;;;;;;;48.70;24.42;;;3.00;99.90;;;;;;4993421;28;20080;-64
2023/12/08 12:15:09;;;;;;;47.10;24.33;;;2.60;99.90;;;;;;4995359;28;20038;-64
2023/12/08 12:17:35;;;;;;;46.35;23.58;;;2.60;99.90;;;;;;4988833;28;20489;-64
2023/12/08 12:20:01;;;;;;;49.55;23.48;;;2.70;99.90;;;;;;4991455;28;20097;-63
2023/12/08 12:22:26;;;;;;;45.70;23.58;;;2.70;99.90;;;;;;4992565;28;20046;-63
2023/12/08 12:24:52;;;;;;;48.55;24.15;;;2.80;99.90;;;;;;4989031;28;21063;-63
2023/12/08 12:27:18;;;;;;;48.53;24.58;;;2.70;99.90;;;;;;4994169;28;20504;-63
2023/12/08 12:29:44;;;;;;;50.53;24.63;;;2.70;99.90;;;;;;4992410;28;20034;-63
2023/12/08 12:32:10;;;;;;;51.88;24.65;;;2.80;99.90;;;;;;4986677;28;20565;-63
2023/12/08 12:34:38;;;;;;;59.70;25.88;;;2.70;99.90;;;;;;4981310;28;20077;-63